Juneau, AK

8:31 PM AKST on December 27, 2014 (GMT -0900)
Juneau International | Change Station
CLOSE
Current Station
Airport
Location: Juneau,
Elevation: 23 ft
Nearby Weather Stations

Elev 23 ft 58.35 °N, 134.58 °W | Updated 34 minutes ago

Mostly Cloudy
Mostly Cloudy
25 °F
Feels Like 25 °F
N
0
Wind Variable Wind from North

Today
High -- | Low -- °F
--% Chance of Precip.
Yesterday
High -- | Low -- °F
Precip. -- in
8:47 AM 3:11 PM
Waxing Crescent, 44% visible
Pressure 30.51 in
Visibility 3.0 miles
Clouds Few 0 ft
Scattered Clouds 300 ft
Mostly Cloudy 3000 ft
Dew Point 24 °F
Humidity 96%
Rainfall 0.00 in
Snow Depth Not available.
UV 0 out of 12
Pollen Not available.
Air Quality Not available.
Flu Activity Not available.
SPECI PAJN 280457Z COR 00000KT 3SM R08/3500VP6000FT FEW000 SCT003 BKN030 M04/M04 A3051 RMK AO2 SFC VIS 5 VIS LWR S PRFG FEW00 PRESENT WX PRFG PRFG E-S T10391044 $

More Conditions Fewer Conditions

Pressure 30.51 in
Visibility 3.0 miles
Clouds Few 0 ft
Scattered Clouds 300 ft
Mostly Cloudy 3000 ft
Dew Point 24 °F
Humidity 96%
Rainfall 0.00 in
Snow Depth Not available.
UV 0 out of 12
Pollen Not available.
Air Quality Not available.
Flu Activity Not available.
SPECI PAJN 280457Z COR 00000KT 3SM R08/3500VP6000FT FEW000 SCT003 BKN030 M04/M04 A3051 RMK AO2 SFC VIS 5 VIS LWR S PRFG FEW00 PRESENT WX PRFG PRFG E-S T10391044 $

More Conditions Fewer Conditions

10-Day Weather Forecast

Almanac

Astronomy

Dec. 27, 2014 Rise Set
Actual Time
Civil Twilight
Nautical Twilight
Astronomical Twilight
Moon
Length of Visible Light
Length of Day
Tomorrow will be .
, % of the Moon is Illuminated

Today's Extremes

State Highs State Lows

Community

WunderPhotos

Upload Photos

1,781,208 photos uploaded!

WunderBlogs® & News

Nearby

Air Quality

  Air Quality AQ Index Pollutant
Not available.

Snow Depth

Station Depth Elevation

Earthquake Activity

City Distance Mag. Time & Date
Minimum magnitude displayed is 2.5.

Coastal Water Temperatures

Place Temperature

Nearby Weather Stations